createdAt,value
2023-03-18T00:01:55.286Z,20.07
2023-03-18T00:04:59.348Z,15.97
2023-03-18T00:08:04.924Z,17.37
2023-03-18T00:11:13.255Z,16.40
2023-03-18T00:14:17.219Z,16.40
2023-03-18T00:17:21.220Z,17.47
2023-03-18T00:20:38.900Z,15.20
2023-03-18T00:23:42.972Z,12.50
2023-03-18T00:26:48.517Z,13.13
2023-03-18T00:29:53.283Z,14.03
2023-03-18T00:32:58.331Z,12.53
2023-03-18T00:36:02.412Z,12.40
2023-03-18T00:39:07.690Z,11.67
2023-03-18T00:42:16.137Z,13.57
2023-03-18T00:45:20.216Z,13.27
2023-03-18T00:48:25.784Z,13.93
2023-03-18T00:51:31.821Z,13.10
2023-03-18T00:54:36.171Z,14.27
2023-03-18T00:57:41.695Z,10.67
2023-03-18T01:00:47.277Z,11.03
2023-03-18T01:03:52.055Z,13.07
2023-03-18T01:06:58.139Z,10.90
2023-03-18T01:10:02.541Z,10.00
2023-03-18T01:13:08.356Z,10.83
2023-03-18T01:16:12.417Z,10.67
2023-03-18T01:19:17.043Z,10.53
2023-03-18T01:22:21.081Z,11.63
2023-03-18T01:25:27.553Z,7.40
2023-03-18T01:28:34.038Z,9.80
2023-03-18T01:31:38.564Z,11.77
2023-03-18T01:34:48.611Z,9.17
2023-03-18T01:37:53.792Z,8.50
2023-03-18T01:40:58.899Z,9.47
2023-03-18T01:44:05.625Z,11.30
2023-03-18T01:47:11.256Z,9.60
2023-03-18T01:50:22.262Z,9.40
2023-03-18T01:53:29.034Z,11.67
2023-03-18T02:00:40.025Z,8.47
2023-03-18T02:06:48.933Z,10.33
2023-03-18T02:09:54.410Z,9.50
2023-03-18T02:13:02.045Z,10.57
2023-03-18T02:16:17.903Z,8.90
2023-03-18T02:19:42.086Z,8.80
2023-03-18T02:22:52.419Z,9.50
2023-03-18T02:26:04.197Z,10.23
2023-03-18T02:29:11.650Z,8.60
2023-03-18T02:32:23.657Z,7.90
2023-03-18T02:35:29.654Z,9.40
2023-03-18T02:38:36.456Z,9.83
2023-03-18T02:41:40.534Z,9.17
2023-03-18T02:44:48.766Z,8.63
2023-03-18T02:48:20.069Z,8.17
2023-03-18T02:51:25.165Z,10.30
2023-03-18T02:54:31.209Z,11.90
2023-03-18T02:57:35.440Z,6.77
2023-03-18T03:00:41.587Z,5.83
2023-03-18T03:03:46.014Z,7.30
2023-03-18T03:06:51.492Z,7.20
2023-03-18T03:10:01.642Z,7.03
2023-03-18T03:13:06.822Z,7.37
2023-03-18T03:16:13.554Z,6.63
2023-03-18T03:19:18.198Z,10.37
2023-03-18T03:22:22.404Z,8.17
2023-03-18T03:25:27.520Z,10.73
2023-03-18T03:28:32.586Z,9.87
2023-03-18T03:31:38.074Z,9.67
2023-03-18T03:34:43.656Z,10.83
2023-03-18T03:37:49.565Z,11.33
2023-03-18T03:40:54.614Z,10.40
2023-03-18T03:43:58.610Z,13.20
2023-03-18T03:47:04.078Z,11.40
2023-03-18T03:50:10.754Z,13.60
2023-03-18T03:53:14.863Z,10.63
2023-03-18T03:56:18.869Z,15.17
2023-03-18T03:59:22.904Z,12.40
2023-03-18T04:02:53.100Z,14.23
2023-03-18T04:05:58.577Z,13.20
2023-03-18T04:09:06.224Z,15.30
2023-03-18T04:12:12.349Z,13.07
2023-03-18T04:15:18.650Z,11.53
2023-03-18T04:18:26.649Z,12.70
2023-03-18T04:21:31.106Z,11.03
2023-03-18T04:24:35.706Z,13.17
2023-03-18T04:27:40.587Z,13.03
2023-03-18T04:30:47.423Z,12.87
2023-03-18T04:33:55.889Z,9.93
2023-03-18T04:36:59.853Z,11.00
2023-03-18T04:40:06.832Z,10.60
2023-03-18T04:43:11.520Z,11.77
2023-03-18T04:46:17.060Z,9.30
2023-03-18T04:49:24.847Z,10.17
2023-03-18T04:52:30.337Z,10.80
2023-03-18T04:55:36.969Z,10.30
2023-03-18T04:58:44.246Z,8.97
2023-03-18T05:01:53.913Z,11.70
2023-03-18T05:05:01.115Z,11.97
2023-03-18T05:08:07.884Z,12.43
2023-03-18T05:11:12.245Z,10.93
2023-03-18T05:14:16.416Z,11.90
2023-03-18T05:17:23.530Z,12.03
2023-03-18T05:20:37.712Z,8.83
2023-03-18T05:23:41.802Z,11.90
2023-03-18T05:26:46.147Z,13.23
2023-03-18T05:29:52.188Z,9.30
2023-03-18T05:33:02.322Z,12.57
2023-03-18T05:36:28.014Z,12.27
2023-03-18T05:39:38.683Z,10.43
2023-03-18T05:42:55.919Z,11.00
2023-03-18T05:46:08.658Z,11.57
2023-03-18T05:49:41.984Z,11.83
2023-03-18T05:52:56.046Z,10.93
2023-03-18T05:56:01.973Z,9.20
2023-03-18T05:59:08.037Z,9.70
2023-03-18T06:02:22.628Z,10.63
2023-03-18T06:05:27.137Z,13.13
2023-03-18T06:08:32.842Z,12.73
2023-03-18T06:11:37.321Z,11.53
2023-03-18T06:14:41.635Z,11.83
2023-03-18T06:17:46.098Z,11.00
2023-03-18T06:20:50.263Z,12.33
2023-03-18T06:23:57.033Z,12.07
2023-03-18T06:27:02.800Z,11.73
2023-03-18T06:30:08.360Z,10.80
2023-03-18T06:33:15.585Z,13.10
2023-03-18T06:36:19.904Z,15.70
2023-03-18T06:39:29.541Z,13.53
2023-03-18T06:42:36.820Z,16.13
2023-03-18T06:45:48.125Z,12.20
2023-03-18T06:48:52.575Z,12.50
2023-03-18T06:52:02.635Z,11.77
2023-03-18T06:55:09.735Z,10.87
2023-03-18T06:58:17.858Z,15.27
2023-03-18T07:01:33.380Z,11.13
2023-03-18T07:04:38.367Z,13.10
2023-03-18T07:07:42.824Z,9.87
2023-03-18T07:10:48.815Z,13.73
2023-03-18T07:13:53.490Z,10.63
2023-03-18T07:17:08.668Z,15.10
2023-03-18T07:20:13.922Z,11.83
2023-03-18T07:23:18.677Z,12.57
2023-03-18T07:26:24.676Z,10.17
2023-03-18T07:29:28.852Z,11.87
2023-03-18T07:32:33.122Z,9.23
2023-03-18T07:35:38.518Z,15.23
2023-03-18T07:38:42.702Z,10.97
2023-03-18T07:41:49.855Z,11.77
2023-03-18T07:44:58.525Z,13.00
2023-03-18T07:48:02.734Z,14.27
2023-03-18T07:51:07.415Z,12.03
2023-03-18T07:54:11.650Z,12.27
2023-03-18T07:57:17.568Z,11.30
2023-03-18T08:00:22.681Z,13.57
2023-03-18T08:03:26.773Z,13.97
2023-03-18T08:06:30.971Z,14.77
2023-03-18T08:09:35.140Z,11.83
2023-03-18T08:12:52.137Z,14.93
2023-03-18T08:15:57.704Z,18.03
2023-03-18T08:19:01.839Z,16.57
2023-03-18T08:22:05.954Z,11.00
2023-03-18T08:25:11.764Z,15.50
2023-03-18T08:28:17.391Z,12.07
2023-03-18T08:31:21.641Z,10.87
2023-03-18T08:34:26.070Z,9.63
2023-03-18T08:37:30.419Z,9.47
2023-03-18T08:40:35.164Z,9.57
2023-03-18T08:43:41.080Z,10.90
2023-03-18T08:46:45.243Z,12.63
2023-03-18T08:49:51.458Z,14.23
2023-03-18T08:52:56.994Z,12.67
2023-03-18T08:56:02.993Z,14.03
2023-03-18T08:59:08.668Z,14.70
2023-03-18T09:02:17.216Z,16.20
2023-03-18T09:05:21.608Z,10.90
2023-03-18T09:08:26.078Z,12.83
2023-03-18T09:11:30.225Z,12.83
2023-03-18T09:14:36.685Z,12.40
2023-03-18T09:17:56.456Z,11.80
2023-03-18T09:21:01.202Z,9.73
2023-03-18T09:24:07.449Z,9.50
2023-03-18T09:27:12.073Z,9.50
2023-03-18T09:30:17.872Z,8.23
2023-03-18T09:33:22.637Z,10.83
2023-03-18T09:36:26.875Z,9.57
2023-03-18T09:39:31.074Z,9.13
2023-03-18T09:42:48.947Z,11.70
2023-03-18T09:46:03.471Z,8.70
2023-03-18T09:49:24.963Z,13.23
2023-03-18T09:52:33.500Z,9.47
2023-03-18T09:55:46.955Z,12.40
2023-03-18T09:58:55.886Z,14.23
2023-03-18T10:02:02.171Z,12.43
2023-03-18T10:05:12.813Z,14.57
2023-03-18T10:08:26.091Z,12.43
2023-03-18T10:11:33.873Z,12.77
2023-03-18T10:14:44.106Z,18.27
2023-03-18T10:17:56.085Z,9.90
2023-03-18T10:21:12.152Z,13.57
2023-03-18T10:24:30.977Z,10.43
2023-03-18T10:27:49.890Z,11.83
2023-03-18T10:31:03.362Z,15.40
2023-03-18T10:34:13.658Z,11.47
2023-03-18T10:37:25.405Z,9.00
2023-03-18T10:40:33.972Z,10.27
2023-03-18T10:43:38.475Z,7.97
2023-03-18T10:46:45.565Z,9.87
2023-03-18T10:50:05.918Z,10.63
2023-03-18T10:53:21.537Z,9.53
2023-03-18T10:56:26.074Z,8.33
2023-03-18T10:59:31.647Z,8.07
2023-03-18T11:02:40.874Z,6.53
2023-03-18T11:05:46.617Z,12.00
2023-03-18T11:08:51.335Z,8.67
2023-03-18T11:11:59.847Z,7.70
2023-03-18T11:15:12.048Z,10.33
2023-03-18T11:18:19.815Z,8.63
2023-03-18T11:21:26.454Z,10.73
2023-03-18T11:24:39.139Z,10.10
2023-03-18T11:27:46.170Z,8.87
2023-03-18T11:30:53.565Z,10.00
2023-03-18T11:33:59.827Z,9.50
2023-03-18T11:37:08.534Z,10.47
2023-03-18T11:40:26.194Z,8.53
2023-03-18T11:43:30.205Z,7.20
2023-03-18T11:46:37.955Z,5.97
2023-03-18T11:49:43.412Z,7.27
2023-03-18T11:52:59.413Z,6.50
2023-03-18T11:56:12.635Z,4.37
2023-03-18T11:59:48.846Z,6.03
2023-03-18T12:03:23.015Z,6.50
2023-03-18T12:06:29.846Z,6.93
2023-03-18T12:09:43.510Z,6.13
2023-03-18T12:12:57.097Z,4.40
2023-03-18T12:16:10.266Z,6.20
2023-03-18T12:19:45.435Z,11.50
2023-03-18T12:23:05.117Z,5.33
2023-03-18T12:26:14.633Z,7.63
2023-03-18T12:29:48.788Z,9.17
2023-03-18T12:32:59.444Z,16.17
2023-03-18T12:36:12.785Z,8.23
2023-03-18T12:39:48.296Z,8.00
2023-03-18T12:43:21.421Z,4.67
2023-03-18T12:46:29.268Z,6.23
2023-03-18T12:49:37.813Z,5.00
2023-03-18T12:52:45.899Z,6.73
2023-03-18T12:55:55.106Z,5.07
2023-03-18T12:59:09.922Z,6.03
2023-03-18T13:02:31.964Z,6.17
2023-03-18T13:05:43.434Z,6.90
2023-03-18T13:08:58.853Z,8.57
2023-03-18T13:12:12.072Z,6.23
2023-03-18T13:15:29.589Z,4.33
2023-03-18T13:18:40.480Z,7.73
2023-03-18T13:21:47.582Z,5.53
2023-03-18T13:25:03.975Z,6.70
2023-03-18T13:28:38.211Z,7.73
2023-03-18T13:31:53.979Z,7.40
2023-03-18T13:35:26.754Z,7.70
2023-03-18T13:38:46.697Z,6.20
2023-03-18T13:42:15.048Z,5.97
2023-03-18T13:45:26.827Z,5.67
2023-03-18T13:48:35.346Z,10.20
2023-03-18T13:51:54.563Z,5.93
2023-03-18T13:55:04.096Z,7.23
2023-03-18T13:58:23.116Z,5.43
2023-03-18T14:01:36.730Z,7.67
2023-03-18T14:04:50.694Z,6.37
2023-03-18T14:07:57.414Z,6.03
2023-03-18T14:11:37.447Z,6.87
2023-03-18T14:14:55.465Z,8.90
2023-03-18T14:18:00.096Z,8.33
2023-03-18T14:21:09.103Z,12.57
2023-03-18T14:24:15.470Z,7.47
2023-03-18T14:27:22.162Z,10.27
2023-03-18T14:30:45.242Z,6.70
2023-03-18T14:33:59.652Z,9.00
2023-03-18T14:37:28.090Z,10.13
2023-03-18T14:40:37.985Z,6.77
2023-03-18T14:43:49.313Z,6.53
2023-03-18T14:46:58.498Z,10.00
2023-03-18T14:50:07.497Z,6.17
2023-03-18T14:53:22.951Z,6.03
2023-03-18T14:56:32.160Z,5.80
2023-03-18T14:59:36.385Z,6.07
2023-03-18T15:02:41.317Z,7.17
2023-03-18T15:05:46.793Z,8.47
2023-03-18T15:08:54.514Z,7.77
2023-03-18T15:11:58.791Z,7.97
2023-03-18T15:15:03.377Z,7.10
2023-03-18T15:18:19.935Z,6.87
2023-03-18T15:21:27.689Z,6.77
2023-03-18T15:24:33.709Z,7.33
2023-03-18T15:27:38.862Z,6.83
2023-03-18T15:30:52.940Z,9.30
2023-03-18T15:34:08.888Z,6.03
2023-03-18T15:37:33.954Z,6.73
2023-03-18T15:40:49.212Z,7.73
2023-03-18T15:43:54.205Z,6.27
2023-03-18T15:47:08.625Z,9.47
2023-03-18T15:50:25.937Z,8.97
2023-03-18T15:53:35.154Z,7.67
2023-03-18T15:56:46.687Z,9.33
2023-03-18T15:59:50.847Z,7.47
2023-03-18T16:02:55.309Z,6.67
2023-03-18T16:06:00.323Z,9.17
2023-03-18T16:09:16.005Z,11.27
2023-03-18T16:12:24.433Z,10.53
2023-03-18T16:15:30.071Z,10.63
2023-03-18T16:18:35.390Z,8.97
2023-03-18T16:21:39.480Z,7.80
2023-03-18T16:24:44.478Z,6.47
2023-03-18T16:27:52.342Z,8.57
2023-03-18T16:30:58.066Z,5.57
2023-03-18T16:34:02.145Z,10.07
2023-03-18T16:37:06.510Z,9.20
2023-03-18T16:40:17.698Z,7.80
2023-03-18T16:43:24.787Z,11.83
2023-03-18T16:46:29.080Z,8.83
2023-03-18T16:49:37.073Z,10.47
2023-03-18T16:52:42.757Z,7.63
2023-03-18T16:55:48.483Z,8.10
2023-03-18T16:58:54.173Z,9.77
2023-03-18T17:01:58.304Z,9.03
2023-03-18T17:05:03.348Z,10.67
2023-03-18T17:08:08.852Z,9.53
2023-03-18T17:11:19.923Z,11.10
2023-03-18T17:14:34.327Z,10.57
2023-03-18T17:17:38.534Z,11.87
2023-03-18T17:20:44.386Z,7.83
2023-03-18T17:23:49.134Z,12.30
2023-03-18T17:26:53.830Z,9.70
2023-03-18T17:29:59.607Z,10.73
2023-03-18T17:33:05.714Z,9.17
2023-03-18T17:36:10.406Z,10.47
2023-03-18T17:39:14.732Z,9.50
2023-03-18T17:42:29.825Z,9.30
2023-03-18T17:45:36.916Z,12.73
2023-03-18T17:48:41.705Z,18.33
2023-03-18T17:51:48.930Z,10.97
2023-03-18T17:54:53.152Z,9.03
2023-03-18T17:57:57.273Z,15.80
2023-03-18T18:01:07.217Z,12.73
2023-03-18T18:04:16.994Z,10.03
2023-03-18T18:07:24.077Z,17.67
2023-03-18T18:10:28.160Z,16.67
2023-03-18T18:13:32.833Z,17.40
2023-03-18T18:16:38.487Z,15.60
2023-03-18T18:19:43.025Z,21.53
2023-03-18T18:22:49.440Z,21.93
2023-03-18T18:25:54.068Z,23.40
2023-03-18T18:28:58.146Z,16.63
2023-03-18T18:32:04.823Z,21.57
2023-03-18T18:35:09.996Z,20.57
2023-03-18T18:38:14.322Z,17.87
2023-03-18T18:41:18.442Z,22.70
2023-03-18T18:44:22.787Z,24.23
2023-03-18T18:47:28.322Z,24.03
2023-03-18T18:50:35.683Z,28.00
2023-03-18T18:53:41.728Z,27.93
2023-03-18T18:56:48.045Z,25.70
2023-03-18T18:59:52.124Z,25.27
2023-03-18T19:02:58.382Z,30.87
2023-03-18T19:06:05.221Z,25.17
2023-03-18T19:09:17.653Z,27.00
2023-03-18T19:12:21.842Z,22.87
2023-03-18T19:15:26.287Z,16.17
2023-03-18T19:18:36.546Z,18.37
2023-03-18T19:21:40.593Z,16.43
2023-03-18T19:24:46.024Z,28.57
2023-03-18T19:27:50.198Z,21.80
2023-03-18T19:30:54.984Z,19.40
2023-03-18T19:34:01.275Z,23.27
2023-03-18T19:37:06.296Z,17.53
2023-03-18T19:40:22.537Z,22.50
2023-03-18T19:43:26.761Z,25.23
2023-03-18T19:46:39.102Z,22.13
2023-03-18T19:49:44.774Z,25.73
2023-03-18T19:52:49.208Z,30.00
2023-03-18T19:55:53.759Z,32.67
2023-03-18T19:58:59.657Z,28.47
2023-03-18T20:02:04.080Z,32.20
2023-03-18T20:05:18.762Z,31.67
2023-03-18T20:08:22.873Z,30.57
2023-03-18T20:11:27.505Z,28.83
2023-03-18T20:14:38.230Z,28.13
2023-03-18T20:17:43.989Z,30.03
2023-03-18T20:20:51.658Z,26.27
2023-03-18T20:23:58.304Z,25.43
2023-03-18T20:27:02.436Z,22.07
2023-03-18T20:30:21.294Z,19.83
2023-03-18T20:33:25.527Z,19.13
2023-03-18T20:36:31.125Z,19.00
2023-03-18T20:39:35.296Z,18.17
2023-03-18T20:42:39.633Z,20.23
2023-03-18T20:45:43.806Z,19.17
2023-03-18T20:48:49.668Z,17.13
2023-03-18T20:51:55.319Z,22.87
2023-03-18T20:54:59.432Z,19.10
2023-03-18T20:58:04.200Z,22.60
2023-03-18T21:01:08.908Z,20.97
2023-03-18T21:04:14.338Z,21.80
2023-03-18T21:07:19.988Z,26.87
2023-03-18T21:10:25.826Z,26.87
2023-03-18T21:13:32.470Z,25.03
2023-03-18T21:16:37.831Z,26.83
2023-03-18T21:19:42.169Z,34.83
2023-03-18T21:22:48.858Z,41.90
2023-03-18T21:25:53.677Z,40.63
2023-03-18T21:28:58.993Z,44.00
2023-03-18T21:32:03.167Z,45.37
2023-03-18T21:35:08.555Z,42.33
2023-03-18T21:38:14.012Z,39.40
2023-03-18T21:41:21.754Z,43.67
2023-03-18T21:44:25.912Z,45.83
2023-03-18T21:47:30.126Z,50.97
2023-03-18T21:50:41.891Z,52.57
2023-03-18T21:53:48.244Z,43.93
2023-03-18T21:56:52.443Z,39.23
2023-03-18T21:59:56.578Z,32.77
2023-03-18T22:03:00.582Z,36.40
2023-03-18T22:06:04.691Z,36.53
2023-03-18T22:09:10.368Z,33.93
2023-03-18T22:12:17.767Z,32.93
2023-03-18T22:15:40.305Z,31.03
2023-03-18T22:18:46.229Z,31.80
2023-03-18T22:21:50.406Z,30.87
2023-03-18T22:24:56.381Z,27.50
2023-03-18T22:28:01.549Z,31.37
2023-03-18T22:31:06.522Z,30.33
2023-03-18T22:34:23.725Z,32.83
2023-03-18T22:37:28.498Z,30.13
2023-03-18T22:40:34.386Z,30.90
2023-03-18T22:43:39.723Z,31.70
2023-03-18T22:46:44.091Z,29.97
2023-03-18T22:49:48.741Z,30.60
2023-03-18T22:52:59.763Z,34.93
2023-03-18T22:56:09.750Z,30.23
2023-03-18T22:59:14.748Z,32.63
2023-03-18T23:02:21.462Z,31.67
2023-03-18T23:05:26.155Z,25.47
2023-03-18T23:08:30.546Z,26.13
2023-03-18T23:11:36.213Z,27.13
2023-03-18T23:14:41.153Z,23.17
2023-03-18T23:17:46.288Z,20.73
2023-03-18T23:20:52.248Z,21.10
2023-03-18T23:23:57.260Z,24.50
2023-03-18T23:27:02.822Z,21.90
2023-03-18T23:30:08.672Z,19.10
2023-03-18T23:33:12.695Z,21.23
2023-03-18T23:36:17.002Z,20.43
2023-03-18T23:39:21.162Z,15.40
2023-03-18T23:42:26.866Z,15.87
2023-03-18T23:45:32.192Z,19.33
2023-03-18T23:48:36.397Z,19.73
2023-03-18T23:51:40.372Z,18.33
2023-03-18T23:54:44.475Z,15.23
2023-03-18T23:57:49.862Z,17.07
